Alta Vista, CA

1:14 PM PDT on August 29, 2015 (GMT -0700)
APRSWXNET | | Change Station
CLOSE
Current Station
Personal Weather Station
Location: San Diego, CA
Elevation: 1141 ft
Nearby Weather Stations

Elev 1141 ft 32.70 °N, 117.02 °W | Updated 20 minutes ago

Clear
Clear
90 °F
Feels Like 94 °F
N
6
Wind Variable Wind from SW
Gusts 13.0 mph

Today
High -- | Low -- °F
--% Chance of Precip.
Yesterday
High -- | Low -- °F
Precip. -- in
6:20 AM 7:16 PM
Full, 100% visible
Pressure 29.90 in
Visibility 10.0 miles
Clouds Few 5000 ft
Heat Index 94 °F
Dew Point 68 °F
Humidity 48%
Rainfall in
Snow Depth Not available.
UV 10 out of 12
Pollen 5.50 out of 12
Air Quality Not available.
Flu Activity Not available.
METAR KSAN 291951Z 29006KT 10SM FEW050 30/17 A2990 RMK AO2 SLP124 T03000172
Pressure 29.90 in
Visibility 10.0 miles
Clouds Few 5000 ft
Heat Index 94 °F
Dew Point 68 °F
Humidity 48%
Rainfall in
Snow Depth Not available.
UV 10 out of 12
Pollen 5.50 out of 12
Air Quality Not available.
Flu Activity Not available.
METAR KSAN 291951Z 29006KT 10SM FEW050 30/17 A2990 RMK AO2 SLP124 T03000172

10-Day Weather Forecast

×

Almanac

Astronomy

Aug. 29, 2015 Rise Set
Actual Time
Civil Twilight
Nautical Twilight
Astronomical Twilight
Moon
Length of Visible Light
Length of Day
Tomorrow will be .
, % of the Moon is Illuminated

Today's Extremes

State Highs State Lows

Community

WunderPhotos

Upload Photos

1,850,795 photos uploaded!

WunderBlogs® & News

Nearby

Air Quality

  Air Quality AQ Index Pollutant
Not available.

Snow Depth

Station Depth Elevation

Earthquake Activity

City Distance Mag. Time & Date
Minimum magnitude displayed is 2.5.

Coastal Water Temperatures

Place Temperature

Stations

Nearby Weather Stations

Station Location Temp. Windchill Dew Point Humidity Wind Precip. Elev Updated Type